createdAt,value
2018-12-17T00:01:35.779Z,54.80
2018-12-17T00:04:06.794Z,59.97
2018-12-17T00:06:37.947Z,56.50
2018-12-17T00:09:08.985Z,57.83
2018-12-17T00:11:40.355Z,62.43
2018-12-17T00:14:11.674Z,61.00
2018-12-17T00:16:42.330Z,62.73
2018-12-17T00:19:13.272Z,64.50
2018-12-17T00:21:44.402Z,58.00
2018-12-17T00:24:15.038Z,61.83
2018-12-17T00:26:45.881Z,65.60
2018-12-17T00:29:16.927Z,64.43
2018-12-17T00:31:47.735Z,60.27
2018-12-17T00:34:18.294Z,59.17
2018-12-17T00:36:49.111Z,59.00
2018-12-17T00:39:20.130Z,55.70
2018-12-17T00:41:51.384Z,60.60
2018-12-17T00:44:23.079Z,62.07
2018-12-17T00:46:54.301Z,56.23
2018-12-17T00:49:25.430Z,59.37
2018-12-17T00:51:56.287Z,61.90
2018-12-17T00:54:27.059Z,61.50
2018-12-17T00:56:57.962Z,56.13
2018-12-17T00:59:28.495Z,57.60
2018-12-17T01:02:00.043Z,60.13
2018-12-17T01:04:30.551Z,58.83
2018-12-17T01:07:01.069Z,60.37
2018-12-17T01:09:31.835Z,66.77
2018-12-17T01:12:02.635Z,57.47
2018-12-17T01:14:33.796Z,59.87
2018-12-17T01:17:05.085Z,66.77
2018-12-17T01:19:35.573Z,60.30
2018-12-17T01:22:06.679Z,63.50
2018-12-17T01:24:37.755Z,63.83
2018-12-17T01:27:08.271Z,57.80
2018-12-17T01:29:39.262Z,58.10
2018-12-17T01:32:09.834Z,67.53
2018-12-17T01:34:40.995Z,66.73
2018-12-17T01:37:11.806Z,70.67
2018-12-17T01:39:42.646Z,65.97
2018-12-17T01:42:13.175Z,64.30
2018-12-17T01:44:44.230Z,65.43
2018-12-17T01:47:15.113Z,63.07
2018-12-17T01:49:45.694Z,68.37
2018-12-17T01:52:16.656Z,80.60
2018-12-17T01:54:47.222Z,66.47
2018-12-17T01:57:17.868Z,65.17
2018-12-17T01:59:48.699Z,61.03
2018-12-17T02:02:19.711Z,65.00
2018-12-17T02:04:50.539Z,63.60
2018-12-17T02:07:21.944Z,60.03
2018-12-17T02:09:52.717Z,66.10
2018-12-17T02:12:23.544Z,57.27
2018-12-17T02:14:54.033Z,62.67
2018-12-17T02:17:24.869Z,57.90
2018-12-17T02:19:56.002Z,53.73
2018-12-17T02:22:27.208Z,69.37
2018-12-17T02:24:57.898Z,55.67
2018-12-17T02:27:28.437Z,59.60
2018-12-17T02:29:59.339Z,62.77
2018-12-17T02:32:29.947Z,66.43
2018-12-17T02:35:00.949Z,59.07
2018-12-17T02:37:31.747Z,64.13
2018-12-17T02:40:02.598Z,66.93
2018-12-17T02:42:33.414Z,55.57
2018-12-17T02:45:04.994Z,55.53
2018-12-17T02:47:36.007Z,56.43
2018-12-17T02:50:07.061Z,58.77
2018-12-17T02:52:37.999Z,63.20
2018-12-17T02:55:08.872Z,60.80
2018-12-17T02:57:39.875Z,64.83
2018-12-17T03:00:11.957Z,69.40
2018-12-17T03:02:44.503Z,58.00
2018-12-17T03:05:27.125Z,63.47
2018-12-17T03:07:58.064Z,56.87
2018-12-17T03:10:36.940Z,57.47
2018-12-17T03:13:07.550Z,61.73
2018-12-17T03:15:42.622Z,63.27
2018-12-17T03:18:13.224Z,56.83
2018-12-17T03:20:44.246Z,57.20
2018-12-17T03:23:15.330Z,56.57
2018-12-17T03:25:46.408Z,58.40
2018-12-17T03:28:17.572Z,55.20
2018-12-17T03:30:48.204Z,52.10
2018-12-17T03:33:18.980Z,59.33
2018-12-17T03:35:50.181Z,57.67
2018-12-17T03:38:21.155Z,56.47
2018-12-17T03:41:00.476Z,62.47
2018-12-17T03:43:31.303Z,65.57
2018-12-17T03:46:02.178Z,60.40
2018-12-17T03:48:32.767Z,52.73
2018-12-17T03:51:03.366Z,56.03
2018-12-17T03:53:34.637Z,62.57
2018-12-17T03:56:05.493Z,56.57
2018-12-17T03:58:36.314Z,60.50
2018-12-17T04:01:07.163Z,64.00
2018-12-17T04:03:38.136Z,65.03
2018-12-17T04:06:09.744Z,67.03
2018-12-17T04:08:40.683Z,61.00
2018-12-17T04:11:11.997Z,63.60
2018-12-17T04:13:42.870Z,64.37
2018-12-17T04:16:13.389Z,62.37
2018-12-17T04:18:44.370Z,60.23
2018-12-17T04:21:14.955Z,62.93
2018-12-17T04:23:45.479Z,62.67
2018-12-17T04:26:16.295Z,62.50
2018-12-17T04:28:47.282Z,58.30
2018-12-17T04:31:18.151Z,63.27
2018-12-17T04:33:49.267Z,63.63
2018-12-17T04:36:19.886Z,61.07
2018-12-17T04:38:50.722Z,70.47
2018-12-17T04:41:21.617Z,62.30
2018-12-17T04:43:52.999Z,63.07
2018-12-17T04:46:23.499Z,63.23
2018-12-17T04:48:54.592Z,57.37
2018-12-17T04:51:25.580Z,64.17
2018-12-17T04:53:56.876Z,64.37
2018-12-17T04:56:27.518Z,64.77
2018-12-17T04:58:59.495Z,61.17
2018-12-17T05:01:30.453Z,65.93
2018-12-17T05:04:01.457Z,65.23
2018-12-17T05:06:32.603Z,61.30
2018-12-17T05:09:03.882Z,68.97
2018-12-17T05:11:34.932Z,69.43
2018-12-17T05:14:06.337Z,70.37
2018-12-17T05:16:37.077Z,62.97
2018-12-17T05:19:08.084Z,60.73
2018-12-17T05:21:39.159Z,56.47
2018-12-17T05:24:09.698Z,65.40
2018-12-17T05:26:40.871Z,59.60
2018-12-17T05:29:11.470Z,61.37
2018-12-17T05:31:42.172Z,61.93
2018-12-17T05:34:13.771Z,63.50
2018-12-17T05:36:45.453Z,61.37
2018-12-17T05:39:16.254Z,61.67
2018-12-17T05:41:46.978Z,60.73
2018-12-17T05:44:17.749Z,59.73
2018-12-17T05:46:48.583Z,68.60
2018-12-17T05:49:20.215Z,61.07
2018-12-17T05:51:51.111Z,71.37
2018-12-17T05:54:22.229Z,67.17
2018-12-17T05:56:52.789Z,57.23
2018-12-17T05:59:28.539Z,60.10
2018-12-17T06:01:56.311Z,54.30
2018-12-17T06:04:26.936Z,57.70
2018-12-17T06:06:58.242Z,65.00
2018-12-17T06:09:29.843Z,63.53
2018-12-17T06:12:00.776Z,64.90
2018-12-17T06:14:31.666Z,60.60
2018-12-17T06:17:02.567Z,66.50
2018-12-17T06:19:33.143Z,66.30
2018-12-17T06:22:04.478Z,66.40
2018-12-17T06:24:35.052Z,67.80
2018-12-17T06:27:05.861Z,63.17
2018-12-17T06:29:37.089Z,74.47
2018-12-17T06:32:08.203Z,75.63
2018-12-17T06:34:38.976Z,61.37
2018-12-17T06:37:09.586Z,55.43
2018-12-17T06:39:40.759Z,60.10
2018-12-17T06:42:11.302Z,65.13
2018-12-17T06:44:42.016Z,53.60
2018-12-17T06:47:13.769Z,67.60
2018-12-17T06:49:44.661Z,66.13
2018-12-17T06:52:15.400Z,63.67
2018-12-17T06:54:45.976Z,65.37
2018-12-17T06:57:16.625Z,64.00
2018-12-17T06:59:47.387Z,61.17
2018-12-17T07:02:18.340Z,66.37
2018-12-17T07:04:49.338Z,59.93
2018-12-17T07:07:20.171Z,64.13
2018-12-17T07:09:50.715Z,72.93
2018-12-17T07:12:21.384Z,63.70
2018-12-17T07:14:52.686Z,116.97
2018-12-17T07:17:23.940Z,65.27
2018-12-17T07:19:55.033Z,69.70
2018-12-17T07:22:26.099Z,75.30
2018-12-17T07:24:56.811Z,62.47
2018-12-17T07:27:27.779Z,67.80
2018-12-17T07:29:58.614Z,65.73
2018-12-17T07:32:29.451Z,69.90
2018-12-17T07:35:00.719Z,64.40
2018-12-17T07:37:32.043Z,62.53
2018-12-17T07:40:02.571Z,69.10
2018-12-17T07:42:33.427Z,67.93
2018-12-17T07:45:05.297Z,63.23
2018-12-17T07:47:36.610Z,63.33
2018-12-17T07:50:08.086Z,64.17
2018-12-17T07:52:38.765Z,74.47
2018-12-17T07:55:10.125Z,67.33
2018-12-17T07:57:41.040Z,87.37
2018-12-17T08:00:12.312Z,77.30
2018-12-17T08:02:57.633Z,60.60
2018-12-17T08:05:35.234Z,57.43
2018-12-17T08:08:06.295Z,64.00
2018-12-17T08:10:36.813Z,61.07
2018-12-17T08:13:07.910Z,62.43
2018-12-17T08:15:40.011Z,72.60
2018-12-17T08:18:23.900Z,67.73
2018-12-17T08:20:54.957Z,73.60
2018-12-17T08:23:26.236Z,65.73
2018-12-17T08:26:06.517Z,73.40
2018-12-17T08:28:37.438Z,70.87
2018-12-17T08:31:08.729Z,64.37
2018-12-17T08:33:40.082Z,60.90
2018-12-17T08:36:10.987Z,71.67
2018-12-17T08:38:41.760Z,66.47
2018-12-17T08:41:12.570Z,67.80
2018-12-17T08:43:43.458Z,61.83
2018-12-17T08:46:14.267Z,65.07
2018-12-17T08:48:44.955Z,64.83
2018-12-17T08:51:15.714Z,65.13
2018-12-17T08:53:47.235Z,69.10
2018-12-17T08:56:18.079Z,118.03
2018-12-17T08:58:50.076Z,76.70
2018-12-17T09:01:20.940Z,66.87
2018-12-17T09:03:52.123Z,67.47
2018-12-17T09:06:22.967Z,67.73
2018-12-17T09:08:53.550Z,69.17
2018-12-17T09:11:24.315Z,64.97
2018-12-17T09:13:54.883Z,69.03
2018-12-17T09:16:25.986Z,69.70
2018-12-17T09:18:56.655Z,80.97
2018-12-17T09:21:27.690Z,74.30
2018-12-17T09:23:58.949Z,101.77
2018-12-17T09:26:29.508Z,63.57
2018-12-17T09:29:00.503Z,78.70
2018-12-17T09:31:31.514Z,71.13
2018-12-17T09:34:02.790Z,63.20
2018-12-17T09:36:33.736Z,61.80
2018-12-17T09:39:07.526Z,67.53
2018-12-17T09:41:39.240Z,64.87
2018-12-17T09:44:09.988Z,67.33
2018-12-17T09:46:40.635Z,71.00
2018-12-17T09:49:11.797Z,71.60
2018-12-17T09:51:42.327Z,65.53
2018-12-17T09:54:13.475Z,61.30
2018-12-17T09:56:44.436Z,66.40
2018-12-17T09:59:14.963Z,69.77
2018-12-17T10:01:48.431Z,68.53
2018-12-17T10:04:20.124Z,74.53
2018-12-17T10:06:51.393Z,71.20
2018-12-17T10:09:22.487Z,70.73
2018-12-17T10:11:53.280Z,61.67
2018-12-17T10:14:23.874Z,62.50
2018-12-17T10:16:57.813Z,61.00
2018-12-17T10:19:28.444Z,66.30
2018-12-17T10:21:59.026Z,65.50
2018-12-17T10:24:29.663Z,65.30
2018-12-17T10:27:00.615Z,69.30
2018-12-17T10:29:31.375Z,64.23
2018-12-17T10:32:02.470Z,61.37
2018-12-17T10:34:33.311Z,66.70
2018-12-17T10:37:04.335Z,69.97
2018-12-17T10:39:35.588Z,63.87
2018-12-17T10:42:06.283Z,63.37
2018-12-17T10:44:36.807Z,69.57
2018-12-17T10:47:07.328Z,65.00
2018-12-17T10:49:38.353Z,60.17
2018-12-17T10:52:09.023Z,65.90
2018-12-17T10:54:39.887Z,66.53
2018-12-17T10:57:10.990Z,64.67
2018-12-17T10:59:42.042Z,71.30
2018-12-17T11:05:04.827Z,68.15
2018-12-17T11:07:35.860Z,76.57
2018-12-17T11:10:07.920Z,68.47
2018-12-17T11:12:38.899Z,70.13
2018-12-17T11:15:11.271Z,71.23
2018-12-17T11:17:41.977Z,70.60
2018-12-17T11:20:12.868Z,69.53
2018-12-17T11:22:43.539Z,72.97
2018-12-17T11:25:14.171Z,72.20
2018-12-17T11:27:46.718Z,77.80
2018-12-17T11:30:32.639Z,72.20
2018-12-17T11:33:03.434Z,65.90
2018-12-17T11:35:43.809Z,68.90
2018-12-17T11:38:14.642Z,69.67
2018-12-17T11:40:46.424Z,70.40
2018-12-17T11:43:17.525Z,75.97
2018-12-17T11:45:48.697Z,87.27
2018-12-17T11:48:19.403Z,79.23
2018-12-17T11:50:50.158Z,70.57
2018-12-17T11:53:21.492Z,76.47
2018-12-17T11:55:52.342Z,72.97
2018-12-17T11:58:22.999Z,79.43
2018-12-17T12:01:10.877Z,73.07
2018-12-17T12:03:44.091Z,73.50
2018-12-17T12:06:14.838Z,73.10
2018-12-17T12:08:45.682Z,74.83
2018-12-17T12:11:16.675Z,76.47
2018-12-17T12:13:47.856Z,79.53
2018-12-17T12:16:18.481Z,82.00
2018-12-17T12:18:49.819Z,76.10
2018-12-17T12:21:20.818Z,72.80
2018-12-17T12:23:52.434Z,77.00
2018-12-17T12:26:23.405Z,85.67
2018-12-17T12:28:54.407Z,84.97
2018-12-17T12:31:26.474Z,71.77
2018-12-17T12:33:56.990Z,77.43
2018-12-17T12:36:28.305Z,70.80
2018-12-17T12:38:59.113Z,70.37
2018-12-17T12:41:30.323Z,81.00
2018-12-17T12:44:00.968Z,68.53
2018-12-17T12:46:32.131Z,71.73
2018-12-17T12:49:03.116Z,67.50
2018-12-17T12:51:33.781Z,71.50
2018-12-17T12:54:04.623Z,76.40
2018-12-17T12:56:35.613Z,73.20
2018-12-17T12:59:06.296Z,94.13
2018-12-17T13:01:37.462Z,104.07
2018-12-17T13:04:08.130Z,68.90
2018-12-17T13:06:39.292Z,78.97
2018-12-17T13:09:10.104Z,71.50
2018-12-17T13:11:40.812Z,79.07
2018-12-17T13:14:12.095Z,84.87
2018-12-17T13:16:43.082Z,92.87
2018-12-17T13:19:14.013Z,87.87
2018-12-17T13:21:44.530Z,102.23
2018-12-17T13:24:15.471Z,85.47
2018-12-17T13:26:45.997Z,93.13
2018-12-17T13:29:17.577Z,82.53
2018-12-17T13:31:48.420Z,75.80
2018-12-17T13:34:19.133Z,67.43
2018-12-17T13:36:50.396Z,78.03
2018-12-17T13:39:21.582Z,87.60
2018-12-17T13:41:52.367Z,80.57
2018-12-17T13:44:23.154Z,65.67
2018-12-17T13:46:53.737Z,66.60
2018-12-17T13:49:25.663Z,68.50
2018-12-17T13:52:01.514Z,71.90
2018-12-17T13:54:32.407Z,69.60
2018-12-17T13:57:03.122Z,76.50
2018-12-17T13:59:34.079Z,68.23
2018-12-17T14:02:05.556Z,75.23
2018-12-17T14:04:36.227Z,78.60
2018-12-17T14:07:07.336Z,72.13
2018-12-17T14:09:43.660Z,76.77
2018-12-17T14:12:14.702Z,68.33
2018-12-17T14:14:45.389Z,71.10
2018-12-17T14:17:21.129Z,82.23
2018-12-17T14:19:57.142Z,74.57
2018-12-17T14:22:28.193Z,76.90
2018-12-17T14:24:59.348Z,62.70
2018-12-17T14:27:30.351Z,55.40
2018-12-17T14:30:01.757Z,65.57
2018-12-17T14:32:32.419Z,68.63
2018-12-17T14:35:03.313Z,62.20
2018-12-17T14:37:36.029Z,72.80
2018-12-17T14:40:08.083Z,54.87
2018-12-17T14:42:38.879Z,63.43
2018-12-17T14:45:10.812Z,63.60
2018-12-17T14:47:41.500Z,49.20
2018-12-17T14:50:12.155Z,66.40
2018-12-17T14:52:43.022Z,61.47
2018-12-17T14:55:14.265Z,56.10
2018-12-17T14:57:51.906Z,45.53
2018-12-17T15:00:37.512Z,48.53
2018-12-17T15:03:12.015Z,55.90
2018-12-17T15:05:45.359Z,52.23
2018-12-17T15:08:29.699Z,50.20
2018-12-17T15:11:00.896Z,47.77
2018-12-17T15:13:31.976Z,60.87
2018-12-17T15:16:02.788Z,43.23
2018-12-17T15:18:33.642Z,42.63
2018-12-17T15:21:05.398Z,42.97
2018-12-17T15:23:36.338Z,40.40
2018-12-17T15:26:07.422Z,47.07
2018-12-17T15:28:38.403Z,45.20
2018-12-17T15:31:09.162Z,38.87
2018-12-17T15:33:40.525Z,48.47
2018-12-17T15:36:11.326Z,36.80
2018-12-17T15:38:42.040Z,45.73
2018-12-17T15:41:13.315Z,44.13
2018-12-17T15:43:44.150Z,49.70
2018-12-17T15:46:15.197Z,47.10
2018-12-17T15:48:46.318Z,45.43
2018-12-17T15:51:17.901Z,44.90
2018-12-17T15:53:48.723Z,40.23
2018-12-17T15:56:19.395Z,44.37
2018-12-17T15:58:50.407Z,38.83
2018-12-17T16:01:21.026Z,48.00
2018-12-17T16:03:52.312Z,39.63
2018-12-17T16:06:23.158Z,50.50
2018-12-17T16:08:53.889Z,38.77
2018-12-17T16:11:24.672Z,50.03
2018-12-17T16:13:55.269Z,56.67
2018-12-17T16:16:26.501Z,43.50
2018-12-17T16:18:57.711Z,50.67
2018-12-17T16:21:29.122Z,43.90
2018-12-17T16:24:00.026Z,43.53
2018-12-17T16:26:32.078Z,40.93
2018-12-17T16:29:02.926Z,47.37
2018-12-17T16:31:33.780Z,51.73
2018-12-17T16:34:04.542Z,46.50
2018-12-17T16:36:35.411Z,134.80
2018-12-17T16:39:08.352Z,49.60
2018-12-17T16:41:39.040Z,51.60
2018-12-17T16:44:09.589Z,46.13
2018-12-17T16:46:40.888Z,46.37
2018-12-17T16:49:12.658Z,55.43
2018-12-17T16:51:43.553Z,46.77
2018-12-17T16:54:14.358Z,56.50
2018-12-17T16:56:45.756Z,54.00
2018-12-17T16:59:16.348Z,73.60
2018-12-17T17:01:47.049Z,52.20
2018-12-17T17:04:18.007Z,43.60
2018-12-17T17:06:48.811Z,42.60
2018-12-17T17:09:20.294Z,54.80
2018-12-17T17:11:52.253Z,45.30
2018-12-17T17:14:23.026Z,46.07
2018-12-17T17:16:54.028Z,40.43
2018-12-17T17:19:25.198Z,47.97
2018-12-17T17:21:56.351Z,42.30
2018-12-17T17:24:27.440Z,48.70
2018-12-17T17:26:58.291Z,50.87
2018-12-17T17:29:29.425Z,41.50
2018-12-17T17:32:00.114Z,42.90
2018-12-17T17:34:30.631Z,49.40
2018-12-17T17:37:01.788Z,47.27
2018-12-17T17:39:32.745Z,94.37
2018-12-17T17:42:04.007Z,55.93
2018-12-17T17:44:34.710Z,40.57
2018-12-17T17:47:05.894Z,47.53
2018-12-17T17:49:36.574Z,47.20
2018-12-17T17:52:07.271Z,37.53
2018-12-17T17:54:38.140Z,46.30
2018-12-17T17:57:08.951Z,53.80
2018-12-17T17:59:40.415Z,46.87
2018-12-17T18:02:11.116Z,45.20
2018-12-17T18:04:41.618Z,52.80
2018-12-17T18:07:12.187Z,49.67
2018-12-17T18:09:42.979Z,45.70
2018-12-17T18:12:13.716Z,42.13
2018-12-17T18:14:44.810Z,43.00
2018-12-17T18:17:15.716Z,44.67
2018-12-17T18:19:46.436Z,44.13
2018-12-17T18:22:16.994Z,48.40
2018-12-17T18:24:47.790Z,45.47
2018-12-17T18:27:19.029Z,46.23
2018-12-17T18:29:50.170Z,46.73
2018-12-17T18:32:25.941Z,42.93
2018-12-17T18:34:53.986Z,39.70
2018-12-17T18:37:24.822Z,42.40
2018-12-17T18:39:55.630Z,34.63
2018-12-17T18:42:26.362Z,28.40
2018-12-17T18:44:57.031Z,50.00
2018-12-17T18:47:27.690Z,34.00
2018-12-17T18:49:58.408Z,30.13
2018-12-17T18:52:30.045Z,22.40
2018-12-17T18:55:01.289Z,26.07
2018-12-17T18:57:31.843Z,23.37
2018-12-17T19:00:03.194Z,18.57
2018-12-17T19:02:34.107Z,23.80
2018-12-17T19:05:05.578Z,18.53
2018-12-17T19:07:36.403Z,18.80
2018-12-17T19:10:07.794Z,18.67
2018-12-17T19:12:39.000Z,17.63
2018-12-17T19:15:10.151Z,16.10
2018-12-17T19:17:41.007Z,17.30
2018-12-17T19:20:11.847Z,20.90
2018-12-17T19:22:42.574Z,17.10
2018-12-17T19:25:14.160Z,20.50
2018-12-17T19:28:00.270Z,17.20
2018-12-17T19:30:31.319Z,17.20
2018-12-17T19:33:02.700Z,14.50
2018-12-17T19:35:38.093Z,12.20
2018-12-17T19:38:10.382Z,19.00
2018-12-17T19:40:49.367Z,20.63
2018-12-17T19:43:23.696Z,19.90
2018-12-17T19:45:59.903Z,18.70
2018-12-17T19:48:31.139Z,11.97
2018-12-17T19:51:02.076Z,14.70
2018-12-17T19:53:34.515Z,19.23
2018-12-17T19:56:06.088Z,13.90
2018-12-17T19:58:37.199Z,16.17
2018-12-17T20:01:09.538Z,13.80
2018-12-17T20:03:41.949Z,15.73
2018-12-17T20:06:12.674Z,14.33
2018-12-17T20:08:44.379Z,12.80
2018-12-17T20:11:15.386Z,10.17
2018-12-17T20:13:45.906Z,14.13
2018-12-17T20:16:18.455Z,11.17
2018-12-17T20:18:49.599Z,14.57
2018-12-17T20:21:20.266Z,15.37
2018-12-17T20:23:51.151Z,10.90
2018-12-17T20:26:22.304Z,11.10
2018-12-17T20:28:53.079Z,15.17
2018-12-17T20:31:24.761Z,14.87
2018-12-17T20:33:56.131Z,10.83
2018-12-17T20:36:27.858Z,13.40
2018-12-17T20:38:58.987Z,12.83
2018-12-17T20:41:29.923Z,19.80
2018-12-17T20:44:01.085Z,15.93
2018-12-17T20:46:31.747Z,12.93
2018-12-17T20:49:03.026Z,13.80
2018-12-17T20:51:33.768Z,16.00
2018-12-17T20:54:04.729Z,14.90
2018-12-17T20:56:35.493Z,14.83
2018-12-17T20:59:06.402Z,19.90
2018-12-17T21:01:37.100Z,15.57
2018-12-17T21:04:07.737Z,13.53
2018-12-17T21:06:38.893Z,15.10
2018-12-17T21:09:09.879Z,17.10
2018-12-17T21:11:40.676Z,10.33
2018-12-17T21:14:12.262Z,17.00
2018-12-17T21:16:43.439Z,19.10
2018-12-17T21:19:14.338Z,15.13
2018-12-17T21:21:45.435Z,12.53
2018-12-17T21:24:16.772Z,16.43
2018-12-17T21:26:47.679Z,14.43
2018-12-17T21:29:18.263Z,17.20
2018-12-17T21:31:49.001Z,13.70
2018-12-17T21:34:20.574Z,15.60
2018-12-17T21:36:51.645Z,11.30
2018-12-17T21:39:22.670Z,15.53
2018-12-17T21:41:53.764Z,15.83
2018-12-17T21:44:24.845Z,16.97
2018-12-17T21:49:51.200Z,17.00
2018-12-17T21:52:22.902Z,15.93
2018-12-17T21:54:53.693Z,21.37
2018-12-17T21:57:24.524Z,16.60
2018-12-17T21:59:55.372Z,20.33
2018-12-17T22:02:26.543Z,18.20
2018-12-17T22:04:57.650Z,16.13
2018-12-17T22:07:28.226Z,16.70
2018-12-17T22:09:59.177Z,14.13
2018-12-17T22:12:30.451Z,22.90
2018-12-17T22:15:00.980Z,14.90
2018-12-17T22:17:31.827Z,11.43
2018-12-17T22:20:02.555Z,11.77
2018-12-17T22:22:33.435Z,11.47
2018-12-17T22:25:04.687Z,12.23
2018-12-17T22:27:35.629Z,14.60
2018-12-17T22:30:07.232Z,21.93
2018-12-17T22:32:38.010Z,14.10
2018-12-17T22:35:09.149Z,16.50
2018-12-17T22:37:39.652Z,26.70
2018-12-17T22:40:10.482Z,13.53
2018-12-17T22:42:41.423Z,14.00
2018-12-17T22:45:12.161Z,23.20
2018-12-17T22:47:53.443Z,16.50
2018-12-17T22:50:29.499Z,14.33
2018-12-17T22:53:00.766Z,17.20
2018-12-17T22:55:31.503Z,14.67
2018-12-17T22:58:02.122Z,13.80
2018-12-17T23:00:50.686Z,10.37
2018-12-17T23:03:26.323Z,14.77
2018-12-17T23:05:54.031Z,17.90
2018-12-17T23:08:24.815Z,12.73
2018-12-17T23:11:06.549Z,11.50
2018-12-17T23:13:48.614Z,13.43
2018-12-17T23:16:31.686Z,12.67
2018-12-17T23:19:01.334Z,16.03
2018-12-17T23:21:32.802Z,11.63
2018-12-17T23:24:03.896Z,13.30
2018-12-17T23:26:34.948Z,19.97
2018-12-17T23:29:06.026Z,21.17
2018-12-17T23:31:36.757Z,18.23
2018-12-17T23:34:07.595Z,27.50
2018-12-17T23:36:39.231Z,42.20
2018-12-17T23:39:10.022Z,32.87
2018-12-17T23:41:40.863Z,35.47
2018-12-17T23:44:11.742Z,38.80
2018-12-17T23:46:42.999Z,48.03
2018-12-17T23:49:14.637Z,33.80
2018-12-17T23:51:45.596Z,32.30
2018-12-17T23:54:16.737Z,33.83
2018-12-17T23:56:47.587Z,46.60
2018-12-17T23:59:18.731Z,45.27
